sensor_id;sensor_type;location;lat;lon;timestamp;P1;durP1;ratioP1;P2;durP2;ratioP2
27684;SDS011;46113;50.130;8.526;2022-12-08T05:15:49;19.23;;;10.13;;
27684;SDS011;46113;50.130;8.526;2022-12-08T05:18:16;21.30;;;11.05;;
27684;SDS011;46113;50.130;8.526;2022-12-08T05:20:42;21.33;;;11.30;;
27684;SDS011;46113;50.130;8.526;2022-12-08T05:23:09;23.15;;;12.25;;
27684;SDS011;46113;50.130;8.526;2022-12-08T05:25:35;22.98;;;11.93;;
27684;SDS011;46113;50.130;8.526;2022-12-08T05:31:13;21.17;;;11.48;;
27684;SDS011;46113;50.130;8.526;2022-12-08T05:36:45;19.80;;;10.98;;
27684;SDS011;46113;50.130;8.526;2022-12-08T05:39:14;18.58;;;10.55;;
27684;SDS011;46113;50.130;8.526;2022-12-08T05:41:55;22.48;;;11.23;;
27684;SDS011;46113;50.130;8.526;2022-12-08T05:44:22;20.23;;;10.38;;
27684;SDS011;46113;50.130;8.526;2022-12-08T05:46:50;23.80;;;11.27;;
27684;SDS011;46113;50.130;8.526;2022-12-08T05:49:17;20.40;;;11.10;;
27684;SDS011;46113;50.130;8.526;2022-12-08T05:51:44;20.35;;;10.65;;
27684;SDS011;46113;50.130;8.526;2022-12-08T05:54:10;20.73;;;11.00;;
27684;SDS011;46113;50.130;8.526;2022-12-08T05:56:37;19.58;;;10.80;;
27684;SDS011;46113;50.130;8.526;2022-12-08T05:59:05;17.88;;;10.10;;
27684;SDS011;46113;50.130;8.526;2022-12-08T06:01:45;19.00;;;10.68;;
27684;SDS011;46113;50.130;8.526;2022-12-08T06:04:12;18.35;;;10.55;;
27684;SDS011;46113;50.130;8.526;2022-12-08T06:06:39;15.70;;;9.20;;
27684;SDS011;46113;50.130;8.526;2022-12-08T06:09:18;17.58;;;9.82;;
27684;SDS011;46113;50.130;8.526;2022-12-08T06:11:52;19.35;;;11.18;;
27684;SDS011;46113;50.130;8.526;2022-12-08T06:14:22;24.38;;;9.73;;
27684;SDS011;46113;50.130;8.526;2022-12-08T06:16:49;18.85;;;10.02;;
27684;SDS011;46113;50.130;8.526;2022-12-08T06:19:16;19.45;;;9.35;;
27684;SDS011;46113;50.130;8.526;2022-12-08T06:21:58;19.27;;;9.85;;
27684;SDS011;46113;50.130;8.526;2022-12-08T06:27:55;15.70;;;8.20;;
27684;SDS011;46113;50.130;8.526;2022-12-08T06:30:34;16.17;;;8.10;;
27684;SDS011;46113;50.130;8.526;2022-12-08T06:33:15;15.52;;;7.78;;
27684;SDS011;46113;50.130;8.526;2022-12-08T06:38:59;12.70;;;6.93;;
27684;SDS011;46113;50.130;8.526;2022-12-08T06:42:16;20.20;;;8.50;;
27684;SDS011;46113;50.130;8.526;2022-12-08T06:45:15;11.10;;;8.27;;
27684;SDS011;46113;50.130;8.526;2022-12-08T06:47:59;11.40;;;6.78;;
27684;SDS011;46113;50.130;8.526;2022-12-08T06:50:46;15.40;;;7.68;;
27684;SDS011;46113;50.130;8.526;2022-12-08T06:53:23;14.32;;;7.85;;
27684;SDS011;46113;50.130;8.526;2022-12-08T06:58:50;16.70;;;8.60;;
27684;SDS011;46113;50.130;8.526;2022-12-08T07:01:33;19.23;;;8.03;;
27684;SDS011;46113;50.130;8.526;2022-12-08T07:04:04;13.32;;;8.23;;
27684;SDS011;46113;50.130;8.526;2022-12-08T07:06:42;13.43;;;7.22;;
27684;SDS011;46113;50.130;8.526;2022-12-08T07:09:22;19.65;;;8.18;;
27684;SDS011;46113;50.130;8.526;2022-12-08T07:14:49;15.25;;;8.40;;
27684;SDS011;46113;50.130;8.526;2022-12-08T07:17:18;14.10;;;7.72;;
27684;SDS011;46113;50.130;8.526;2022-12-08T07:19:58;12.85;;;6.68;;
27684;SDS011;46113;50.130;8.526;2022-12-08T07:22:48;14.82;;;7.47;;
27684;SDS011;46113;50.130;8.526;2022-12-08T07:27:57;12.13;;;7.35;;
27684;SDS011;46113;50.130;8.526;2022-12-08T07:30:28;15.52;;;8.20;;
27684;SDS011;46113;50.130;8.526;2022-12-08T07:36:17;14.60;;;7.53;;
27684;SDS011;46113;50.130;8.526;2022-12-08T07:38:57;14.57;;;8.57;;
27684;SDS011;46113;50.130;8.526;2022-12-08T07:41:44;14.80;;;8.10;;
27684;SDS011;46113;50.130;8.526;2022-12-08T07:47:55;17.45;;;8.13;;
27684;SDS011;46113;50.130;8.526;2022-12-08T07:50:31;24.00;;;10.05;;
27684;SDS011;46113;50.130;8.526;2022-12-08T07:53:12;15.73;;;8.35;;
27684;SDS011;46113;50.130;8.526;2022-12-08T07:56:14;11.98;;;8.10;;
27684;SDS011;46113;50.130;8.526;2022-12-08T08:02:14;16.92;;;8.70;;
27684;SDS011;46113;50.130;8.526;2022-12-08T08:05:17;17.33;;;8.88;;
27684;SDS011;46113;50.130;8.526;2022-12-08T08:07:59;17.00;;;9.23;;
27684;SDS011;46113;50.130;8.526;2022-12-08T08:10:36;22.25;;;9.70;;
27684;SDS011;46113;50.130;8.526;2022-12-08T08:13:33;16.42;;;9.32;;
27684;SDS011;46113;50.130;8.526;2022-12-08T08:16:20;13.93;;;7.97;;
27684;SDS011;46113;50.130;8.526;2022-12-08T08:19:20;19.98;;;9.30;;
27684;SDS011;46113;50.130;8.526;2022-12-08T08:22:20;20.88;;;8.45;;
27684;SDS011;46113;50.130;8.526;2022-12-08T08:25:18;25.10;;;9.63;;
27684;SDS011;46113;50.130;8.526;2022-12-08T08:28:13;11.93;;;8.27;;
27684;SDS011;46113;50.130;8.526;2022-12-08T08:34:04;17.92;;;8.82;;
27684;SDS011;46113;50.130;8.526;2022-12-08T08:36:46;17.00;;;8.02;;
27684;SDS011;46113;50.130;8.526;2022-12-08T08:39:22;14.80;;;7.90;;
27684;SDS011;46113;50.130;8.526;2022-12-08T08:42:01;15.38;;;8.18;;
27684;SDS011;46113;50.130;8.526;2022-12-08T08:44:52;18.65;;;8.60;;
27684;SDS011;46113;50.130;8.526;2022-12-08T08:47:32;16.00;;;7.38;;
27684;SDS011;46113;50.130;8.526;2022-12-08T08:50:26;12.93;;;7.47;;
27684;SDS011;46113;50.130;8.526;2022-12-08T08:53:12;16.05;;;8.27;;
27684;SDS011;46113;50.130;8.526;2022-12-08T08:55:58;12.88;;;7.18;;
27684;SDS011;46113;50.130;8.526;2022-12-08T08:58:35;10.63;;;6.82;;
27684;SDS011;46113;50.130;8.526;2022-12-08T09:01:15;14.57;;;7.63;;
27684;SDS011;46113;50.130;8.526;2022-12-08T09:03:53;8.98;;;6.65;;
27684;SDS011;46113;50.130;8.526;2022-12-08T09:06:43;15.93;;;8.25;;
27684;SDS011;46113;50.130;8.526;2022-12-08T09:09:26;19.67;;;7.38;;
27684;SDS011;46113;50.130;8.526;2022-12-08T09:12:04;17.63;;;7.43;;
27684;SDS011;46113;50.130;8.526;2022-12-08T09:14:41;16.17;;;7.47;;
27684;SDS011;46113;50.130;8.526;2022-12-08T09:17:16;13.77;;;9.17;;
27684;SDS011;46113;50.130;8.526;2022-12-08T09:19:57;18.13;;;8.60;;
27684;SDS011;46113;50.130;8.526;2022-12-08T09:22:50;17.90;;;7.95;;
27684;SDS011;46113;50.130;8.526;2022-12-08T09:25:26;16.60;;;8.30;;
27684;SDS011;46113;50.130;8.526;2022-12-08T09:28:00;13.57;;;8.23;;
27684;SDS011;46113;50.130;8.526;2022-12-08T09:30:34;13.02;;;8.30;;
27684;SDS011;46113;50.130;8.526;2022-12-08T09:33:10;14.80;;;8.18;;
27684;SDS011;46113;50.130;8.526;2022-12-08T09:35:50;14.30;;;8.03;;
27684;SDS011;46113;50.130;8.526;2022-12-08T09:38:43;15.65;;;8.55;;
27684;SDS011;46113;50.130;8.526;2022-12-08T09:41:44;14.27;;;7.93;;
27684;SDS011;46113;50.130;8.526;2022-12-08T09:47:46;15.75;;;8.77;;
27684;SDS011;46113;50.130;8.526;2022-12-08T09:50:55;17.63;;;8.48;;
27684;SDS011;46113;50.130;8.526;2022-12-08T09:53:41;15.55;;;7.75;;
27684;SDS011;46113;50.130;8.526;2022-12-08T09:56:24;15.27;;;7.25;;
27684;SDS011;46113;50.130;8.526;2022-12-08T09:59:35;14.32;;;7.43;;
27684;SDS011;46113;50.130;8.526;2022-12-08T10:02:27;16.08;;;7.88;;
27684;SDS011;46113;50.130;8.526;2022-12-08T10:05:14;17.73;;;8.82;;
27684;SDS011;46113;50.130;8.526;2022-12-08T10:08:17;18.70;;;8.65;;
27684;SDS011;46113;50.130;8.526;2022-12-08T10:11:04;16.10;;;8.30;;
27684;SDS011;46113;50.130;8.526;2022-12-08T10:16:50;15.15;;;7.18;;
27684;SDS011;46113;50.130;8.526;2022-12-08T10:19:42;16.35;;;7.07;;
27684;SDS011;46113;50.130;8.526;2022-12-08T10:22:30;10.60;;;6.40;;
27684;SDS011;46113;50.130;8.526;2022-12-08T10:25:20;13.48;;;8.68;;
27684;SDS011;46113;50.130;8.526;2022-12-08T10:28:13;14.57;;;8.15;;
27684;SDS011;46113;50.130;8.526;2022-12-08T10:30:46;12.80;;;7.38;;
27684;SDS011;46113;50.130;8.526;2022-12-08T10:33:34;12.68;;;7.15;;
27684;SDS011;46113;50.130;8.526;2022-12-08T10:39:40;12.43;;;6.82;;
27684;SDS011;46113;50.130;8.526;2022-12-08T10:45:24;12.73;;;6.95;;
27684;SDS011;46113;50.130;8.526;2022-12-08T10:48:04;12.48;;;8.02;;
27684;SDS011;46113;50.130;8.526;2022-12-08T10:50:54;11.43;;;6.50;;
27684;SDS011;46113;50.130;8.526;2022-12-08T10:53:57;10.45;;;5.38;;
27684;SDS011;46113;50.130;8.526;2022-12-08T10:56:37;9.05;;;5.55;;
27684;SDS011;46113;50.130;8.526;2022-12-08T10:59:31;12.02;;;5.53;;
27684;SDS011;46113;50.130;8.526;2022-12-08T11:02:17;12.50;;;4.40;;
27684;SDS011;46113;50.130;8.526;2022-12-08T11:04:59;5.57;;;3.83;;
27684;SDS011;46113;50.130;8.526;2022-12-08T11:07:47;8.85;;;3.97;;
27684;SDS011;46113;50.130;8.526;2022-12-08T11:13:36;4.45;;;3.25;;
27684;SDS011;46113;50.130;8.526;2022-12-08T11:16:32;8.40;;;3.28;;
27684;SDS011;46113;50.130;8.526;2022-12-08T11:19:29;8.23;;;3.45;;
27684;SDS011;46113;50.130;8.526;2022-12-08T11:22:32;3.47;;;2.42;;
27684;SDS011;46113;50.130;8.526;2022-12-08T11:25:21;4.05;;;2.65;;
27684;SDS011;46113;50.130;8.526;2022-12-08T11:28:03;5.65;;;2.72;;
27684;SDS011;46113;50.130;8.526;2022-12-08T11:30:38;3.97;;;2.45;;
27684;SDS011;46113;50.130;8.526;2022-12-08T11:33:18;3.55;;;2.30;;
27684;SDS011;46113;50.130;8.526;2022-12-08T11:36:04;2.92;;;2.42;;
27684;SDS011;46113;50.130;8.526;2022-12-08T11:38:38;5.95;;;3.20;;
27684;SDS011;46113;50.130;8.526;2022-12-08T11:41:10;5.40;;;3.58;;
27684;SDS011;46113;50.130;8.526;2022-12-08T11:43:55;8.30;;;5.22;;
27684;SDS011;46113;50.130;8.526;2022-12-08T11:49:17;9.48;;;5.65;;
27684;SDS011;46113;50.130;8.526;2022-12-08T11:51:47;8.25;;;5.75;;
27684;SDS011;46113;50.130;8.526;2022-12-08T11:54:50;11.48;;;5.35;;
27684;SDS011;46113;50.130;8.526;2022-12-08T11:57:25;8.98;;;4.88;;
27684;SDS011;46113;50.130;8.526;2022-12-08T12:00:09;8.50;;;5.35;;
27684;SDS011;46113;50.130;8.526;2022-12-08T12:02:43;9.30;;;5.60;;
27684;SDS011;46113;50.130;8.526;2022-12-08T12:09:08;9.20;;;5.20;;
27684;SDS011;46113;50.130;8.526;2022-12-08T12:18:02;9.82;;;4.95;;
27684;SDS011;46113;50.130;8.526;2022-12-08T12:25:01;8.25;;;4.07;;
27684;SDS011;46113;50.130;8.526;2022-12-08T12:31:47;3.05;;;2.50;;
27684;SDS011;46113;50.130;8.526;2022-12-08T12:34:20;4.90;;;2.35;;
27684;SDS011;46113;50.130;8.526;2022-12-08T12:36:53;7.28;;;2.55;;
27684;SDS011;46113;50.130;8.526;2022-12-08T12:39:28;2.55;;;2.15;;
27684;SDS011;46113;50.130;8.526;2022-12-08T12:41:59;4.35;;;2.05;;
27684;SDS011;46113;50.130;8.526;2022-12-08T12:46:59;3.60;;;2.30;;
27684;SDS011;46113;50.130;8.526;2022-12-08T12:54:42;3.30;;;2.38;;
27684;SDS011;46113;50.130;8.526;2022-12-08T13:08:02;3.30;;;2.10;;
27684;SDS011;46113;50.130;8.526;2022-12-08T13:10:36;5.65;;;2.65;;
27684;SDS011;46113;50.130;8.526;2022-12-08T13:16:04;3.78;;;2.60;;
27684;SDS011;46113;50.130;8.526;2022-12-08T13:18:48;3.13;;;1.92;;
27684;SDS011;46113;50.130;8.526;2022-12-08T13:21:19;3.42;;;2.42;;
27684;SDS011;46113;50.130;8.526;2022-12-08T13:23:49;2.88;;;2.00;;
27684;SDS011;46113;50.130;8.526;2022-12-08T13:26:43;3.83;;;2.03;;
27684;SDS011;46113;50.130;8.526;2022-12-08T13:29:12;5.15;;;2.55;;
27684;SDS011;46113;50.130;8.526;2022-12-08T13:31:56;3.03;;;1.83;;
27684;SDS011;46113;50.130;8.526;2022-12-08T13:34:29;2.08;;;1.50;;
27684;SDS011;46113;50.130;8.526;2022-12-08T13:37:20;3.63;;;1.88;;
27684;SDS011;46113;50.130;8.526;2022-12-08T13:39:56;2.38;;;1.77;;
27684;SDS011;46113;50.130;8.526;2022-12-08T13:42:32;2.65;;;1.80;;
27684;SDS011;46113;50.130;8.526;2022-12-08T13:48:13;3.35;;;1.75;;
27684;SDS011;46113;50.130;8.526;2022-12-08T13:51:10;4.47;;;1.85;;
27684;SDS011;46113;50.130;8.526;2022-12-08T13:54:05;3.90;;;1.88;;
27684;SDS011;46113;50.130;8.526;2022-12-08T13:56:57;5.45;;;2.40;;
27684;SDS011;46113;50.130;8.526;2022-12-08T13:59:42;2.47;;;1.60;;
27684;SDS011;46113;50.130;8.526;2022-12-08T14:02:14;2.47;;;2.07;;
27684;SDS011;46113;50.130;8.526;2022-12-08T14:05:01;3.58;;;2.80;;
27684;SDS011;46113;50.130;8.526;2022-12-08T14:07:48;3.05;;;2.20;;
27684;SDS011;46113;50.130;8.526;2022-12-08T14:12:51;2.97;;;2.25;;
27684;SDS011;46113;50.130;8.526;2022-12-08T14:15:22;5.50;;;2.95;;
27684;SDS011;46113;50.130;8.526;2022-12-08T14:17:52;3.67;;;2.20;;
27684;SDS011;46113;50.130;8.526;2022-12-08T14:20:25;2.65;;;1.75;;
27684;SDS011;46113;50.130;8.526;2022-12-08T14:23:20;6.35;;;2.20;;
27684;SDS011;46113;50.130;8.526;2022-12-08T14:25:50;3.70;;;1.85;;
27684;SDS011;46113;50.130;8.526;2022-12-08T14:28:16;7.82;;;2.35;;
27684;SDS011;46113;50.130;8.526;2022-12-08T14:30:43;3.00;;;2.15;;
27684;SDS011;46113;50.130;8.526;2022-12-08T14:33:11;3.88;;;2.38;;
27684;SDS011;46113;50.130;8.526;2022-12-08T14:35:51;3.65;;;2.47;;
27684;SDS011;46113;50.130;8.526;2022-12-08T14:38:20;4.43;;;2.95;;
27684;SDS011;46113;50.130;8.526;2022-12-08T14:41:00;6.05;;;2.60;;
27684;SDS011;46113;50.130;8.526;2022-12-08T14:43:29;4.35;;;2.22;;
27684;SDS011;46113;50.130;8.526;2022-12-08T14:45:57;3.60;;;2.40;;
27684;SDS011;46113;50.130;8.526;2022-12-08T14:56:06;2.88;;;2.00;;
27684;SDS011;46113;50.130;8.526;2022-12-08T14:58:40;3.17;;;2.30;;
27684;SDS011;46113;50.130;8.526;2022-12-08T15:01:07;3.78;;;2.20;;
27684;SDS011;46113;50.130;8.526;2022-12-08T15:03:37;3.03;;;2.30;;
27684;SDS011;46113;50.130;8.526;2022-12-08T15:06:05;5.43;;;2.50;;
27684;SDS011;46113;50.130;8.526;2022-12-08T15:08:33;2.95;;;2.30;;
27684;SDS011;46113;50.130;8.526;2022-12-08T15:13:49;4.03;;;2.75;;
27684;SDS011;46113;50.130;8.526;2022-12-08T15:16:24;3.35;;;3.00;;
27684;SDS011;46113;50.130;8.526;2022-12-08T15:19:02;4.40;;;2.40;;
27684;SDS011;46113;50.130;8.526;2022-12-08T15:21:42;3.70;;;1.50;;
27684;SDS011;46113;50.130;8.526;2022-12-08T15:24:13;2.50;;;1.83;;
27684;SDS011;46113;50.130;8.526;2022-12-08T15:26:46;2.85;;;1.40;;
27684;SDS011;46113;50.130;8.526;2022-12-08T15:29:20;2.20;;;1.60;;
27684;SDS011;46113;50.130;8.526;2022-12-08T15:31:49;3.70;;;2.20;;
27684;SDS011;46113;50.130;8.526;2022-12-08T15:34:22;1.95;;;1.55;;
27684;SDS011;46113;50.130;8.526;2022-12-08T15:36:49;1.67;;;1.20;;
27684;SDS011;46113;50.130;8.526;2022-12-08T15:39:29;2.22;;;1.73;;
27684;SDS011;46113;50.130;8.526;2022-12-08T15:42:01;4.78;;;1.70;;
27684;SDS011;46113;50.130;8.526;2022-12-08T15:44:29;2.97;;;1.65;;
27684;SDS011;46113;50.130;8.526;2022-12-08T15:46:58;1.45;;;1.10;;
27684;SDS011;46113;50.130;8.526;2022-12-08T15:49:25;2.58;;;1.55;;
27684;SDS011;46113;50.130;8.526;2022-12-08T15:51:52;2.20;;;1.98;;
27684;SDS011;46113;50.130;8.526;2022-12-08T15:54:33;2.17;;;1.98;;
27684;SDS011;46113;50.130;8.526;2022-12-08T15:56:59;5.82;;;2.83;;
27684;SDS011;46113;50.130;8.526;2022-12-08T15:59:45;6.10;;;2.50;;
27684;SDS011;46113;50.130;8.526;2022-12-08T16:02:12;4.15;;;2.15;;
27684;SDS011;46113;50.130;8.526;2022-12-08T16:04:46;3.78;;;2.58;;
27684;SDS011;46113;50.130;8.526;2022-12-08T16:07:33;2.72;;;2.42;;
27684;SDS011;46113;50.130;8.526;2022-12-08T16:10:05;6.55;;;2.30;;
27684;SDS011;46113;50.130;8.526;2022-12-08T16:12:33;3.63;;;2.45;;
27684;SDS011;46113;50.130;8.526;2022-12-08T16:15:40;2.90;;;1.90;;
27684;SDS011;46113;50.130;8.526;2022-12-08T16:18:26;4.70;;;2.60;;
27684;SDS011;46113;50.130;8.526;2022-12-08T16:20:55;5.85;;;3.10;;
27684;SDS011;46113;50.130;8.526;2022-12-08T16:26:40;5.38;;;2.95;;
27684;SDS011;46113;50.130;8.526;2022-12-08T16:29:26;7.53;;;3.47;;
27684;SDS011;46113;50.130;8.526;2022-12-08T16:31:53;7.15;;;4.30;;
27684;SDS011;46113;50.130;8.526;2022-12-08T16:34:19;6.63;;;4.50;;
27684;SDS011;46113;50.130;8.526;2022-12-08T16:36:46;6.72;;;4.53;;
27684;SDS011;46113;50.130;8.526;2022-12-08T16:39:12;10.20;;;4.90;;
27684;SDS011;46113;50.130;8.526;2022-12-08T16:41:39;5.30;;;4.07;;
27684;SDS011;46113;50.130;8.526;2022-12-08T16:44:24;8.65;;;4.80;;
27684;SDS011;46113;50.130;8.526;2022-12-08T16:46:51;12.70;;;5.22;;
27684;SDS011;46113;50.130;8.526;2022-12-08T16:49:17;6.95;;;4.53;;
27684;SDS011;46113;50.130;8.526;2022-12-08T16:51:44;9.45;;;5.53;;
27684;SDS011;46113;50.130;8.526;2022-12-08T16:57:32;8.73;;;5.07;;
27684;SDS011;46113;50.130;8.526;2022-12-08T16:59:59;7.88;;;4.90;;
27684;SDS011;46113;50.130;8.526;2022-12-08T17:02:25;7.35;;;4.95;;
27684;SDS011;46113;50.130;8.526;2022-12-08T17:04:52;11.30;;;5.97;;
27684;SDS011;46113;50.130;8.526;2022-12-08T17:07:18;11.23;;;6.22;;
27684;SDS011;46113;50.130;8.526;2022-12-08T17:09:45;8.23;;;5.82;;
27684;SDS011;46113;50.130;8.526;2022-12-08T17:12:11;8.82;;;5.80;;
27684;SDS011;46113;50.130;8.526;2022-12-08T17:17:34;10.85;;;4.97;;
27684;SDS011;46113;50.130;8.526;2022-12-08T17:20:02;5.88;;;3.63;;
27684;SDS011;46113;50.130;8.526;2022-12-08T17:22:31;8.15;;;3.30;;
27684;SDS011;46113;50.130;8.526;2022-12-08T17:24:59;7.85;;;3.65;;
27684;SDS011;46113;50.130;8.526;2022-12-08T17:27:26;5.25;;;3.17;;
27684;SDS011;46113;50.130;8.526;2022-12-08T17:29:53;8.43;;;3.50;;
27684;SDS011;46113;50.130;8.526;2022-12-08T17:32:22;6.97;;;3.97;;
27684;SDS011;46113;50.130;8.526;2022-12-08T17:34:49;6.15;;;4.20;;
27684;SDS011;46113;50.130;8.526;2022-12-08T17:37:18;8.07;;;3.92;;
27684;SDS011;46113;50.130;8.526;2022-12-08T17:39:45;7.22;;;4.60;;
27684;SDS011;46113;50.130;8.526;2022-12-08T17:42:11;8.10;;;4.70;;
27684;SDS011;46113;50.130;8.526;2022-12-08T17:44:38;7.95;;;4.93;;
27684;SDS011;46113;50.130;8.526;2022-12-08T17:47:04;6.03;;;4.70;;
27684;SDS011;46113;50.130;8.526;2022-12-08T17:49:31;6.50;;;3.65;;
27684;SDS011;46113;50.130;8.526;2022-12-08T17:51:59;5.95;;;3.42;;
27684;SDS011;46113;50.130;8.526;2022-12-08T17:54:30;4.68;;;3.50;;
27684;SDS011;46113;50.130;8.526;2022-12-08T17:56:57;6.70;;;3.85;;
27684;SDS011;46113;50.130;8.526;2022-12-08T17:59:32;8.85;;;5.10;;
27684;SDS011;46113;50.130;8.526;2022-12-08T18:01:59;7.60;;;4.50;;
27684;SDS011;46113;50.130;8.526;2022-12-08T18:04:28;9.90;;;4.60;;
27684;SDS011;46113;50.130;8.526;2022-12-08T18:06:54;8.63;;;4.25;;
27684;SDS011;46113;50.130;8.526;2022-12-08T18:09:24;12.60;;;4.38;;
27684;SDS011;46113;50.130;8.526;2022-12-08T18:11:51;10.43;;;5.45;;
27684;SDS011;46113;50.130;8.526;2022-12-08T18:14:17;9.80;;;5.22;;
27684;SDS011;46113;50.130;8.526;2022-12-08T18:16:44;8.15;;;5.30;;
27684;SDS011;46113;50.130;8.526;2022-12-08T18:19:12;11.93;;;6.10;;
27684;SDS011;46113;50.130;8.526;2022-12-08T18:25:04;10.13;;;6.35;;
27684;SDS011;46113;50.130;8.526;2022-12-08T18:27:33;12.10;;;6.95;;
27684;SDS011;46113;50.130;8.526;2022-12-08T18:30:22;10.85;;;6.18;;
27684;SDS011;46113;50.130;8.526;2022-12-08T18:32:49;11.30;;;6.30;;
27684;SDS011;46113;50.130;8.526;2022-12-08T18:35:22;9.63;;;5.90;;
27684;SDS011;46113;50.130;8.526;2022-12-08T18:37:49;9.63;;;5.43;;
27684;SDS011;46113;50.130;8.526;2022-12-08T18:40:18;12.30;;;7.18;;
27684;SDS011;46113;50.130;8.526;2022-12-08T18:42:49;10.98;;;5.97;;
27684;SDS011;46113;50.130;8.526;2022-12-08T18:45:16;11.65;;;7.13;;
27684;SDS011;46113;50.130;8.526;2022-12-08T18:47:50;9.90;;;6.50;;
27684;SDS011;46113;50.130;8.526;2022-12-08T18:50:17;12.70;;;6.55;;
27684;SDS011;46113;50.130;8.526;2022-12-08T18:52:44;8.07;;;5.15;;
27684;SDS011;46113;50.130;8.526;2022-12-08T18:57:41;14.13;;;6.97;;
27684;SDS011;46113;50.130;8.526;2022-12-08T19:00:13;14.35;;;7.93;;
27684;SDS011;46113;50.130;8.526;2022-12-08T19:02:42;12.85;;;6.78;;
27684;SDS011;46113;50.130;8.526;2022-12-08T19:05:09;13.23;;;6.70;;
27684;SDS011;46113;50.130;8.526;2022-12-08T19:07:37;11.77;;;6.95;;
27684;SDS011;46113;50.130;8.526;2022-12-08T19:10:04;13.02;;;6.70;;
27684;SDS011;46113;50.130;8.526;2022-12-08T19:12:32;11.25;;;6.72;;
27684;SDS011;46113;50.130;8.526;2022-12-08T19:14:58;12.45;;;7.47;;
27684;SDS011;46113;50.130;8.526;2022-12-08T19:17:25;12.45;;;6.57;;
27684;SDS011;46113;50.130;8.526;2022-12-08T19:19:51;10.52;;;6.10;;
27684;SDS011;46113;50.130;8.526;2022-12-08T19:22:21;8.25;;;5.68;;
27684;SDS011;46113;50.130;8.526;2022-12-08T19:24:52;14.20;;;6.40;;
27684;SDS011;46113;50.130;8.526;2022-12-08T19:27:22;9.85;;;5.88;;
27684;SDS011;46113;50.130;8.526;2022-12-08T19:30:02;10.98;;;6.18;;
27684;SDS011;46113;50.130;8.526;2022-12-08T19:32:37;11.75;;;6.28;;
27684;SDS011;46113;50.130;8.526;2022-12-08T19:35:06;14.82;;;6.07;;
27684;SDS011;46113;50.130;8.526;2022-12-08T19:37:33;13.35;;;5.68;;
27684;SDS011;46113;50.130;8.526;2022-12-08T19:40:00;8.27;;;5.70;;
27684;SDS011;46113;50.130;8.526;2022-12-08T19:43:04;9.38;;;5.38;;
27684;SDS011;46113;50.130;8.526;2022-12-08T19:50:58;11.75;;;5.70;;
27684;SDS011;46113;50.130;8.526;2022-12-08T19:53:29;6.03;;;4.80;;
27684;SDS011;46113;50.130;8.526;2022-12-08T19:56:16;9.80;;;4.82;;
27684;SDS011;46113;50.130;8.526;2022-12-08T19:58:45;9.18;;;5.60;;
27684;SDS011;46113;50.130;8.526;2022-12-08T20:01:22;9.10;;;4.72;;
27684;SDS011;46113;50.130;8.526;2022-12-08T20:04:02;7.22;;;5.22;;
27684;SDS011;46113;50.130;8.526;2022-12-08T20:06:36;8.30;;;5.00;;
27684;SDS011;46113;50.130;8.526;2022-12-08T20:09:19;13.35;;;5.22;;
27684;SDS011;46113;50.130;8.526;2022-12-08T20:11:53;9.90;;;5.78;;
27684;SDS011;46113;50.130;8.526;2022-12-08T20:14:47;9.55;;;5.20;;
27684;SDS011;46113;50.130;8.526;2022-12-08T20:21:19;9.52;;;5.18;;
27684;SDS011;46113;50.130;8.526;2022-12-08T20:24:06;9.48;;;5.32;;
27684;SDS011;46113;50.130;8.526;2022-12-08T20:26:51;7.78;;;5.13;;
27684;SDS011;46113;50.130;8.526;2022-12-08T20:29:20;8.35;;;4.78;;
27684;SDS011;46113;50.130;8.526;2022-12-08T20:31:47;10.07;;;4.97;;
27684;SDS011;46113;50.130;8.526;2022-12-08T20:34:15;9.65;;;5.13;;
27684;SDS011;46113;50.130;8.526;2022-12-08T20:36:43;8.70;;;5.30;;
27684;SDS011;46113;50.130;8.526;2022-12-08T20:39:17;11.45;;;5.38;;
27684;SDS011;46113;50.130;8.526;2022-12-08T20:41:54;8.10;;;4.88;;
27684;SDS011;46113;50.130;8.526;2022-12-08T20:44:21;11.65;;;5.68;;
27684;SDS011;46113;50.130;8.526;2022-12-08T20:47:00;8.00;;;4.75;;
27684;SDS011;46113;50.130;8.526;2022-12-08T20:49:41;12.57;;;5.45;;
27684;SDS011;46113;50.130;8.526;2022-12-08T20:52:13;7.07;;;5.28;;
27684;SDS011;46113;50.130;8.526;2022-12-08T20:54:40;8.68;;;4.78;;
27684;SDS011;46113;50.130;8.526;2022-12-08T20:57:09;7.55;;;5.28;;
27684;SDS011;46113;50.130;8.526;2022-12-08T20:59:39;9.82;;;6.00;;
27684;SDS011;46113;50.130;8.526;2022-12-08T21:02:05;13.85;;;5.50;;
27684;SDS011;46113;50.130;8.526;2022-12-08T21:04:32;7.95;;;5.05;;
27684;SDS011;46113;50.130;8.526;2022-12-08T21:07:03;9.23;;;5.15;;
27684;SDS011;46113;50.130;8.526;2022-12-08T21:09:33;14.10;;;6.53;;
27684;SDS011;46113;50.130;8.526;2022-12-08T21:12:02;10.98;;;5.65;;
27684;SDS011;46113;50.130;8.526;2022-12-08T21:14:29;10.77;;;5.55;;
27684;SDS011;46113;50.130;8.526;2022-12-08T21:17:01;9.55;;;6.05;;
27684;SDS011;46113;50.130;8.526;2022-12-08T21:19:28;12.30;;;6.25;;
27684;SDS011;46113;50.130;8.526;2022-12-08T21:21:56;11.05;;;5.88;;
27684;SDS011;46113;50.130;8.526;2022-12-08T21:24:27;11.27;;;6.00;;
27684;SDS011;46113;50.130;8.526;2022-12-08T21:27:00;11.20;;;6.03;;
27684;SDS011;46113;50.130;8.526;2022-12-08T21:29:27;9.70;;;5.57;;
27684;SDS011;46113;50.130;8.526;2022-12-08T21:31:57;11.23;;;5.93;;
27684;SDS011;46113;50.130;8.526;2022-12-08T21:34:26;11.77;;;5.50;;
27684;SDS011;46113;50.130;8.526;2022-12-08T21:37:05;6.10;;;4.88;;
27684;SDS011;46113;50.130;8.526;2022-12-08T21:39:35;7.82;;;5.60;;
27684;SDS011;46113;50.130;8.526;2022-12-08T21:42:02;10.57;;;6.32;;
27684;SDS011;46113;50.130;8.526;2022-12-08T21:45:00;10.73;;;5.78;;
27684;SDS011;46113;50.130;8.526;2022-12-08T21:47:27;11.20;;;5.57;;
27684;SDS011;46113;50.130;8.526;2022-12-08T21:52:54;13.93;;;6.70;;
27684;SDS011;46113;50.130;8.526;2022-12-08T21:58:48;9.00;;;5.63;;
27684;SDS011;46113;50.130;8.526;2022-12-08T22:01:27;10.23;;;6.80;;
27684;SDS011;46113;50.130;8.526;2022-12-08T22:03:55;9.90;;;6.35;;
27684;SDS011;46113;50.130;8.526;2022-12-08T22:06:22;10.55;;;5.97;;
27684;SDS011;46113;50.130;8.526;2022-12-08T22:08:50;8.88;;;5.97;;
27684;SDS011;46113;50.130;8.526;2022-12-08T22:11:18;8.60;;;5.38;;
27684;SDS011;46113;50.130;8.526;2022-12-08T22:13:45;9.75;;;5.95;;
27684;SDS011;46113;50.130;8.526;2022-12-08T22:18:47;7.10;;;5.53;;
27684;SDS011;46113;50.130;8.526;2022-12-08T22:21:15;12.73;;;6.47;;
27684;SDS011;46113;50.130;8.526;2022-12-08T22:26:15;12.65;;;5.28;;
27684;SDS011;46113;50.130;8.526;2022-12-08T22:28:41;10.10;;;6.13;;
27684;SDS011;46113;50.130;8.526;2022-12-08T22:31:09;12.73;;;5.65;;
27684;SDS011;46113;50.130;8.526;2022-12-08T22:33:40;10.02;;;6.53;;
27684;SDS011;46113;50.130;8.526;2022-12-08T22:36:16;18.13;;;6.97;;
27684;SDS011;46113;50.130;8.526;2022-12-08T22:38:44;10.02;;;5.93;;
27684;SDS011;46113;50.130;8.526;2022-12-08T22:41:11;13.27;;;5.75;;
27684;SDS011;46113;50.130;8.526;2022-12-08T22:43:38;11.52;;;5.95;;
27684;SDS011;46113;50.130;8.526;2022-12-08T22:49:23;12.55;;;6.82;;
27684;SDS011;46113;50.130;8.526;2022-12-08T22:51:50;10.73;;;6.70;;
27684;SDS011;46113;50.130;8.526;2022-12-08T22:54:18;9.15;;;5.50;;
27684;SDS011;46113;50.130;8.526;2022-12-08T22:56:44;11.32;;;7.30;;
27684;SDS011;46113;50.130;8.526;2022-12-08T22:59:11;16.88;;;6.35;;
